Time;durP1;ratioP1;P1;durP2;ratioP2;P2;SDS_P1;SDS_P2;PMS_P1;PMS_P2;Temp;Humidity;BMP_temperature;BMP_pressure;BME280_temperature;BME280_humidity;BME280_pressure;Samples;Min_cycle;Max_cycle;Signal;HPM_P1;HPM_P2
2021/12/06 00:00:44;;;;;;;24.15;15.30;;;4.10;99.90;;;;;;5068591;28;20193;-60
2021/12/06 00:03:20;;;;;;;25.20;15.30;;;4.10;99.90;;;;;;5065017;28;20200;-60
2021/12/06 00:05:45;;;;;;;28.88;14.32;;;4.20;99.90;;;;;;5066722;28;20655;-60
2021/12/06 00:08:11;;;;;;;25.20;15.10;;;4.20;99.90;;;;;;5056280;28;20187;-59
2021/12/06 00:10:37;;;;;;;23.17;14.00;;;4.20;99.90;;;;;;5069089;28;20230;-61
2021/12/06 00:13:03;;;;;;;22.50;14.30;;;4.10;99.90;;;;;;5072335;28;20427;-60
2021/12/06 00:15:32;;;;;;;22.30;13.67;;;4.10;99.90;;;;;;5074761;28;20228;-60
2021/12/06 00:17:59;;;;;;;22.77;13.20;;;4.10;99.90;;;;;;5073402;28;20492;-59
2021/12/06 00:20:25;;;;;;;23.55;14.40;;;4.10;99.90;;;;;;5079214;28;20196;-60
2021/12/06 00:22:50;;;;;;;22.20;13.15;;;4.20;99.90;;;;;;5071291;28;20301;-60
2021/12/06 00:25:16;;;;;;;24.50;15.00;;;4.20;99.90;;;;;;5090535;28;20196;-60
2021/12/06 00:27:42;;;;;;;25.93;15.00;;;4.10;99.90;;;;;;5079163;28;20200;-60
2021/12/06 00:30:12;;;;;;;23.57;14.00;;;4.10;99.90;;;;;;5076002;28;20208;-60
2021/12/06 00:32:39;;;;;;;26.88;15.40;;;4.20;99.90;;;;;;5073649;28;20429;-60
2021/12/06 00:35:06;;;;;;;25.05;14.02;;;4.20;99.90;;;;;;5083153;28;20189;-61
2021/12/06 00:37:41;;;;;;;26.92;13.60;;;4.20;99.90;;;;;;5080419;28;20522;-60
2021/12/06 00:40:07;;;;;;;26.80;15.50;;;4.10;99.90;;;;;;5072737;28;20238;-60
2021/12/06 00:42:33;;;;;;;27.63;14.32;;;4.10;99.90;;;;;;5078183;28;20185;-60
2021/12/06 00:45:00;;;;;;;25.70;14.18;;;4.10;99.90;;;;;;5085577;28;20292;-60
2021/12/06 00:47:26;;;;;;;27.25;15.88;;;4.20;99.90;;;;;;5074136;28;20217;-60
2021/12/06 00:49:51;;;;;;;30.13;15.67;;;4.20;99.90;;;;;;5084552;28;20184;-61
2021/12/06 00:52:18;;;;;;;25.80;15.80;;;4.20;99.90;;;;;;5082523;28;20182;-61
2021/12/06 00:54:44;;;;;;;28.58;14.63;;;4.20;99.90;;;;;;5088462;28;20991;-60
2021/12/06 00:57:12;;;;;;;23.98;14.35;;;4.20;99.90;;;;;;5072314;28;20177;-60
2021/12/06 00:59:38;;;;;;;22.90;13.63;;;4.20;99.90;;;;;;5075615;28;20188;-59
2021/12/06 01:02:06;;;;;;;23.13;13.90;;;4.20;99.90;;;;;;5071468;28;20539;-60
2021/12/06 01:04:33;;;;;;;20.15;12.82;;;4.10;99.90;;;;;;5071017;28;20485;-63
2021/12/06 01:06:59;;;;;;;23.60;13.13;;;4.10;99.90;;;;;;5072460;28;20185;-60
2021/12/06 01:09:25;;;;;;;24.85;14.10;;;4.10;99.90;;;;;;5076274;28;20189;-61
2021/12/06 01:11:51;;;;;;;23.47;14.07;;;4.10;99.90;;;;;;5082885;28;20194;-61
2021/12/06 01:14:18;;;;;;;21.00;12.60;;;4.00;99.90;;;;;;5079737;28;20263;-61
2021/12/06 01:16:44;;;;;;;22.10;12.63;;;4.00;99.90;;;;;;5070160;28;20454;-61
2021/12/06 01:19:09;;;;;;;23.13;13.75;;;4.00;99.90;;;;;;5091787;28;20221;-61
2021/12/06 01:21:47;;;;;;;21.67;13.60;;;3.90;99.90;;;;;;5079913;28;20194;-61
2021/12/06 01:24:15;;;;;;;22.30;13.80;;;3.80;99.90;;;;;;5077957;28;21085;-61
2021/12/06 01:28:01;;;;;;;22.85;13.85;;;3.80;99.90;;;;;;5074685;28;20213;-60
2021/12/06 01:29:58;;;;;;;23.80;13.25;;;3.80;99.90;;;;;;5072670;28;20188;-61
2021/12/06 01:32:58;;;;;;;22.83;13.30;;;3.80;99.90;;;;;;5077791;28;20281;-61
2021/12/06 01:40:37;;;;;;;29.50;15.65;;;3.80;99.90;;;;;;5082330;28;20180;-61
2021/12/06 01:43:04;;;;;;;25.53;15.50;;;3.70;99.90;;;;;;5070045;28;20663;-61
2021/12/06 01:45:30;;;;;;;29.08;16.25;;;3.70;99.90;;;;;;5076646;28;20212;-61
2021/12/06 01:47:55;;;;;;;32.40;16.57;;;3.70;99.90;;;;;;5077372;28;20531;-61
2021/12/06 01:50:28;;;;;;;31.30;17.33;;;3.50;99.90;;;;;;5051248;28;20174;-61
2021/12/06 01:52:58;;;;;;;30.98;16.65;;;3.50;99.90;;;;;;5058703;28;20177;-61
2021/12/06 01:55:28;;;;;;;33.10;17.35;;;3.40;99.90;;;;;;5071923;28;20565;-61
2021/12/06 01:57:55;;;;;;;30.65;16.88;;;3.40;99.90;;;;;;5091633;28;20185;-61
2021/12/06 02:00:41;;;;;;;28.40;15.18;;;3.50;99.90;;;;;;5079178;28;20178;-61
2021/12/06 02:03:07;;;;;;;28.35;17.02;;;3.40;99.90;;;;;;5067292;28;20189;-61
2021/12/06 02:05:33;;;;;;;32.67;17.60;;;3.40;99.90;;;;;;5070944;28;20702;-61
2021/12/06 02:07:59;;;;;;;30.88;17.63;;;3.40;99.90;;;;;;5068469;28;20489;-61
2021/12/06 02:10:27;;;;;;;29.03;16.50;;;3.40;99.90;;;;;;5069838;28;20630;-61
2021/12/06 02:12:54;;;;;;;32.75;16.75;;;3.30;99.90;;;;;;5071406;28;20536;-61
2021/12/06 02:17:58;;;;;;;29.45;17.83;;;3.30;99.90;;;;;;5068874;28;20228;-61
2021/12/06 02:20:27;;;;;;;32.85;17.20;;;3.40;99.90;;;;;;5069805;28;20184;-61
2021/12/06 02:22:54;;;;;;;30.30;18.38;;;3.30;99.90;;;;;;5069573;28;20271;-64
2021/12/06 02:25:20;;;;;;;32.03;18.30;;;3.30;99.90;;;;;;5070252;28;20221;-61
2021/12/06 02:27:50;;;;;;;33.13;18.33;;;3.20;99.90;;;;;;5068929;28;20178;-62
2021/12/06 02:30:17;;;;;;;35.08;18.10;;;3.10;99.90;;;;;;5066413;28;20188;-61
2021/12/06 02:32:44;;;;;;;35.70;18.50;;;3.10;99.90;;;;;;5070123;28;20182;-61
2021/12/06 02:35:14;;;;;;;36.20;18.35;;;3.00;99.90;;;;;;5051429;28;20277;-61
2021/12/06 02:37:41;;;;;;;35.10;17.50;;;3.00;99.90;;;;;;5068711;28;20306;-61
2021/12/06 02:40:20;;;;;;;30.10;18.27;;;2.90;99.90;;;;;;5070407;28;20199;-61
2021/12/06 02:42:46;;;;;;;30.67;17.23;;;2.90;99.90;;;;;;5064554;28;20170;-61
2021/12/06 02:45:15;;;;;;;30.00;16.70;;;2.80;99.90;;;;;;5050603;28;20213;-61
2021/12/06 02:47:41;;;;;;;27.85;17.40;;;2.80;99.90;;;;;;5067952;28;20166;-61
2021/12/06 02:50:09;;;;;;;28.07;17.27;;;2.70;99.90;;;;;;5070658;28;20180;-61
2021/12/06 02:52:37;;;;;;;30.73;18.17;;;2.70;99.90;;;;;;5067110;28;20447;-64
2021/12/06 02:55:20;;;;;;;32.10;18.83;;;2.70;99.90;;;;;;5070579;28;20292;-61
2021/12/06 02:57:47;;;;;;;33.38;17.38;;;2.70;99.90;;;;;;5069715;28;20686;-61
2021/12/06 03:00:13;;;;;;;31.10;18.33;;;2.70;99.90;;;;;;5069331;28;20180;-54
2021/12/06 03:02:38;;;;;;;30.55;18.02;;;2.60;99.90;;;;;;5065617;28;20213;-61
2021/12/06 03:05:05;;;;;;;34.20;19.10;;;2.60;99.90;;;;;;5078981;28;20233;-61
2021/12/06 03:07:35;;;;;;;34.35;18.13;;;2.50;99.90;;;;;;5070684;28;20572;-61
2021/12/06 03:10:02;;;;;;;27.80;17.23;;;2.50;99.90;;;;;;5079743;28;20984;-61
2021/12/06 03:12:28;;;;;;;32.08;17.92;;;2.40;99.90;;;;;;5084221;28;20184;-61
2021/12/06 03:14:56;;;;;;;37.87;18.60;;;2.30;99.90;;;;;;5067272;28;20208;-61
2021/12/06 03:17:24;;;;;;;31.20;18.75;;;2.40;99.90;;;;;;5079730;28;20189;-60
2021/12/06 03:19:50;;;;;;;31.88;19.00;;;2.40;99.90;;;;;;5074185;28;20189;-61
2021/12/06 03:22:17;;;;;;;32.85;18.42;;;2.40;99.90;;;;;;5076516;28;20184;-61
2021/12/06 03:24:43;;;;;;;32.50;19.02;;;2.40;99.90;;;;;;5074221;28;20205;-59
2021/12/06 03:27:10;;;;;;;33.17;20.05;;;2.30;99.90;;;;;;5067908;28;20185;-61
2021/12/06 03:29:36;;;;;;;37.30;21.35;;;2.30;99.90;;;;;;5073781;28;20176;-61
2021/12/06 03:32:03;;;;;;;28.43;18.60;;;2.30;99.90;;;;;;5071197;28;20185;-54
2021/12/06 03:34:29;;;;;;;32.65;20.58;;;2.30;99.90;;;;;;5067764;28;20488;-61
2021/12/06 03:36:57;;;;;;;35.15;19.30;;;2.30;99.90;;;;;;5067626;28;20189;-61
2021/12/06 03:39:28;;;;;;;33.47;19.30;;;2.30;99.90;;;;;;5077839;28;20506;-61
2021/12/06 03:41:59;;;;;;;34.15;19.40;;;2.30;99.90;;;;;;5074647;28;20190;-57
2021/12/06 03:44:26;;;;;;;31.80;18.73;;;2.20;99.90;;;;;;5059311;28;20212;-61
2021/12/06 03:46:57;;;;;;;35.25;19.50;;;2.20;99.90;;;;;;5083832;28;20249;-61
2021/12/06 03:49:23;;;;;;;31.50;20.67;;;2.20;99.90;;;;;;5089634;28;20256;-61
2021/12/06 03:51:49;;;;;;;32.60;19.30;;;2.10;99.90;;;;;;5060689;28;20858;-61
2021/12/06 03:54:20;;;;;;;36.58;21.33;;;2.20;99.90;;;;;;5088994;28;20177;-61
2021/12/06 03:56:47;;;;;;;33.97;20.17;;;2.10;99.90;;;;;;5077810;28;20196;-61
2021/12/06 03:59:12;;;;;;;34.25;20.90;;;2.10;99.90;;;;;;5068733;28;20243;-56
2021/12/06 04:01:39;;;;;;;36.03;20.47;;;2.10;99.90;;;;;;5066867;28;20177;-61
2021/12/06 04:04:07;;;;;;;39.35;22.92;;;2.10;99.90;;;;;;5069017;28;20193;-61
2021/12/06 04:06:35;;;;;;;37.55;21.02;;;2.00;99.90;;;;;;5067653;28;20192;-61
2021/12/06 04:09:03;;;;;;;34.13;21.35;;;2.10;99.90;;;;;;5076302;28;20190;-60
2021/12/06 04:11:28;;;;;;;32.03;20.67;;;2.10;99.90;;;;;;5050190;28;20196;-61
2021/12/06 04:13:54;;;;;;;40.27;22.10;;;2.20;99.90;;;;;;5067749;28;20181;-61
2021/12/06 04:16:19;;;;;;;35.87;19.90;;;2.10;99.90;;;;;;5072654;28;20223;-61
2021/12/06 04:18:46;;;;;;;35.93;22.40;;;2.20;99.90;;;;;;5068968;28;20288;-61
2021/12/06 04:21:12;;;;;;;33.83;20.45;;;2.10;99.90;;;;;;5086767;28;20192;-61
2021/12/06 04:23:39;;;;;;;39.15;22.33;;;2.10;99.90;;;;;;5083332;28;20347;-61
2021/12/06 04:26:05;;;;;;;34.83;21.73;;;2.10;99.90;;;;;;5077780;28;20177;-64
2021/12/06 04:28:33;;;;;;;35.35;22.38;;;2.10;99.90;;;;;;5068384;28;20185;-61
2021/12/06 04:31:00;;;;;;;34.67;21.60;;;2.10;99.90;;;;;;5068247;28;20185;-62
2021/12/06 04:33:25;;;;;;;36.72;21.13;;;2.10;99.90;;;;;;5067389;28;20182;-61
2021/12/06 04:35:51;;;;;;;31.77;21.03;;;2.10;99.90;;;;;;5066561;28;20193;-61
2021/12/06 04:38:17;;;;;;;40.13;22.60;;;2.10;99.90;;;;;;5049437;28;20205;-61
2021/12/06 04:40:43;;;;;;;39.27;22.90;;;2.10;99.90;;;;;;5068444;28;20435;-61
2021/12/06 04:43:09;;;;;;;37.25;21.63;;;2.10;99.90;;;;;;5067652;28;20184;-61
2021/12/06 04:45:36;;;;;;;35.30;21.27;;;2.10;99.90;;;;;;5067767;28;21189;-61
2021/12/06 04:48:02;;;;;;;34.03;21.05;;;2.10;99.90;;;;;;5067801;28;20173;-61
2021/12/06 04:50:31;;;;;;;33.25;21.38;;;2.10;99.90;;;;;;5068906;28;20170;-61
2021/12/06 04:53:05;;;;;;;38.17;21.67;;;2.10;99.90;;;;;;5067840;28;20166;-62
2021/12/06 04:55:41;;;;;;;35.25;21.30;;;2.10;99.90;;;;;;5068908;28;20532;-62
2021/12/06 04:58:09;;;;;;;33.05;21.10;;;2.10;99.90;;;;;;5058429;28;20186;-62
2021/12/06 05:00:46;;;;;;;33.50;21.35;;;2.00;99.90;;;;;;5076586;28;20186;-61
2021/12/06 05:03:12;;;;;;;35.22;21.33;;;2.00;99.90;;;;;;5073410;28;20181;-62
2021/12/06 05:05:52;;;;;;;35.08;20.02;;;2.00;99.90;;;;;;5073443;28;20225;-62
2021/12/06 05:08:25;;;;;;;34.35;20.75;;;2.10;99.90;;;;;;5036867;28;20178;-58
2021/12/06 05:10:51;;;;;;;33.85;20.65;;;2.00;99.90;;;;;;5051207;28;20289;-62
2021/12/06 05:13:17;;;;;;;38.65;21.05;;;2.00;99.90;;;;;;5070364;28;20228;-62
2021/12/06 05:15:43;;;;;;;38.95;22.35;;;2.00;99.90;;;;;;5082058;28;20187;-61
2021/12/06 05:18:10;;;;;;;34.70;21.50;;;1.90;99.90;;;;;;5070243;28;20182;-61
2021/12/06 05:20:36;;;;;;;37.60;22.92;;;1.90;99.90;;;;;;5064207;28;21314;-62
2021/12/06 05:23:04;;;;;;;37.22;21.73;;;2.00;99.90;;;;;;5066501;28;20217;-59
2021/12/06 05:25:30;;;;;;;35.25;22.13;;;1.90;99.90;;;;;;5075277;28;20216;-61
2021/12/06 05:27:58;;;;;;;38.40;22.30;;;1.90;99.90;;;;;;5077318;28;20212;-61
2021/12/06 05:30:25;;;;;;;35.17;22.25;;;2.10;99.90;;;;;;5077938;28;20197;-62
2021/12/06 05:32:51;;;;;;;36.30;23.50;;;2.10;99.90;;;;;;5070842;28;20182;-61
2021/12/06 05:35:17;;;;;;;39.75;22.88;;;2.10;99.90;;;;;;5076391;28;20192;-62
2021/12/06 05:37:47;;;;;;;38.60;23.20;;;2.10;99.90;;;;;;5059820;28;20192;-62
2021/12/06 05:40:20;;;;;;;41.13;23.73;;;2.10;99.90;;;;;;5076570;28;20242;-62
2021/12/06 05:42:46;;;;;;;37.95;22.50;;;2.00;99.90;;;;;;5073701;28;20793;-62
2021/12/06 05:45:15;;;;;;;39.85;23.92;;;2.00;99.90;;;;;;5074911;28;20205;-62
2021/12/06 05:47:41;;;;;;;38.55;23.10;;;2.00;99.90;;;;;;5071157;28;20196;-61
2021/12/06 05:50:07;;;;;;;35.90;22.33;;;1.90;99.90;;;;;;5074058;28;20181;-61
2021/12/06 05:52:33;;;;;;;40.90;23.70;;;1.90;99.90;;;;;;5091698;28;20176;-61
2021/12/06 05:54:58;;;;;;;34.42;22.40;;;1.90;99.90;;;;;;5090813;28;20191;-65
2021/12/06 05:57:24;;;;;;;39.57;23.30;;;1.90;99.90;;;;;;5078192;28;20178;-60
2021/12/06 05:59:50;;;;;;;39.42;24.33;;;1.90;99.90;;;;;;5070873;28;20174;-61
2021/12/06 06:02:17;;;;;;;42.37;23.17;;;1.80;99.90;;;;;;5055957;28;20186;-61
2021/12/06 06:04:42;;;;;;;34.78;21.25;;;1.90;99.90;;;;;;5084183;28;20301;-57
2021/12/06 06:07:08;;;;;;;41.57;23.60;;;1.90;99.90;;;;;;5070871;28;21041;-61
2021/12/06 06:09:34;;;;;;;37.73;22.97;;;1.80;99.90;;;;;;5076294;28;20211;-61
2021/12/06 06:12:00;;;;;;;36.60;22.70;;;1.80;99.90;;;;;;5072257;28;20489;-61
2021/12/06 06:14:26;;;;;;;40.92;23.77;;;1.70;99.90;;;;;;5065674;28;20280;-64
2021/12/06 06:16:53;;;;;;;40.93;22.33;;;1.70;99.90;;;;;;5069233;28;20260;-63
2021/12/06 06:19:22;;;;;;;39.20;22.95;;;1.80;99.90;;;;;;5069853;28;20534;-62
2021/12/06 06:21:48;;;;;;;37.75;22.73;;;1.80;99.90;;;;;;5066862;28;20760;-61
2021/12/06 06:24:14;;;;;;;36.50;22.80;;;1.80;99.90;;;;;;5073781;28;20689;-66
2021/12/06 06:26:40;;;;;;;35.93;22.50;;;1.80;99.90;;;;;;5062262;28;20218;-60
2021/12/06 06:29:06;;;;;;;37.23;22.10;;;1.90;99.90;;;;;;5071344;28;20811;-59
2021/12/06 06:31:31;;;;;;;33.00;21.73;;;1.80;99.90;;;;;;5074799;28;20174;-61
2021/12/06 06:33:57;;;;;;;38.93;22.63;;;1.80;99.90;;;;;;5065385;28;20813;-62
2021/12/06 06:36:22;;;;;;;35.03;22.07;;;1.90;99.90;;;;;;5079126;28;20186;-60
2021/12/06 06:38:48;;;;;;;30.37;20.77;;;1.90;99.90;;;;;;5070166;28;20214;-60
2021/12/06 06:41:13;;;;;;;31.17;20.57;;;1.80;99.90;;;;;;5068605;28;20188;-60
2021/12/06 06:43:39;;;;;;;36.20;23.03;;;1.80;99.90;;;;;;5068993;28;20189;-63
2021/12/06 06:46:06;;;;;;;35.80;22.93;;;1.80;99.90;;;;;;5075850;28;20267;-60
2021/12/06 06:48:32;;;;;;;36.05;22.55;;;1.80;99.90;;;;;;5073585;28;20571;-60
2021/12/06 06:50:59;;;;;;;37.15;22.48;;;1.90;99.90;;;;;;5062838;28;20194;-61
2021/12/06 06:53:26;;;;;;;43.33;25.33;;;1.80;99.90;;;;;;5071155;28;20177;-61
2021/12/06 06:55:53;;;;;;;48.38;32.42;;;1.80;99.90;;;;;;5068516;28;20235;-63
2021/12/06 06:58:18;;;;;;;37.78;23.67;;;1.80;99.90;;;;;;5068527;28;20177;-61
2021/12/06 07:00:44;;;;;;;41.33;27.17;;;1.80;99.90;;;;;;5065457;28;20180;-63
2021/12/06 07:03:09;;;;;;;34.73;21.87;;;1.80;99.90;;;;;;5061600;28;20224;-61
2021/12/06 07:05:37;;;;;;;36.20;24.07;;;1.80;99.90;;;;;;5064224;28;20209;-65
2021/12/06 07:08:03;;;;;;;35.92;26.58;;;1.80;99.90;;;;;;5049445;28;20177;-62
2021/12/06 07:10:28;;;;;;;36.65;23.77;;;1.80;99.90;;;;;;5073347;28;20165;-65
2021/12/06 07:12:55;;;;;;;32.37;22.80;;;1.80;99.90;;;;;;5077315;28;20664;-67
2021/12/06 07:15:25;;;;;;;35.58;22.80;;;1.90;99.90;;;;;;5066612;28;20224;-60
2021/12/06 07:17:51;;;;;;;33.90;21.23;;;1.90;99.90;;;;;;5065331;28;20193;-59
2021/12/06 07:20:18;;;;;;;37.25;22.65;;;2.00;99.90;;;;;;5075132;28;20192;-60
2021/12/06 07:22:44;;;;;;;32.03;21.10;;;1.90;99.90;;;;;;5066214;28;20730;-65
2021/12/06 07:25:13;;;;;;;36.25;22.77;;;1.90;99.90;;;;;;5066893;28;20186;-61
2021/12/06 07:27:39;;;;;;;33.92;22.40;;;1.90;99.90;;;;;;5066326;28;21107;-65
2021/12/06 07:30:06;;;;;;;43.60;22.37;;;1.90;99.90;;;;;;5066619;28;20181;-65
2021/12/06 07:32:31;;;;;;;27.60;20.13;;;1.90;99.90;;;;;;5048473;28;20264;-61
2021/12/06 07:34:57;;;;;;;32.13;20.20;;;2.00;99.90;;;;;;5065605;28;20683;-61
2021/12/06 07:37:22;;;;;;;30.23;18.80;;;1.90;99.90;;;;;;5049119;28;20197;-64
2021/12/06 07:39:48;;;;;;;27.27;18.90;;;1.90;99.90;;;;;;5067107;28;20181;-66
2021/12/06 07:42:14;;;;;;;28.27;19.07;;;2.00;99.90;;;;;;5067750;28;20180;-65
2021/12/06 07:44:40;;;;;;;26.13;18.30;;;1.90;99.90;;;;;;5066565;28;20543;-65
2021/12/06 07:47:07;;;;;;;30.87;18.60;;;1.90;99.90;;;;;;5066477;28;20182;-65
2021/12/06 07:49:33;;;;;;;28.20;18.90;;;1.90;99.90;;;;;;5069473;28;20426;-62
2021/12/06 07:51:58;;;;;;;32.88;19.30;;;1.80;99.90;;;;;;5083236;28;20686;-63
2021/12/06 07:54:24;;;;;;;30.20;19.10;;;1.90;99.90;;;;;;5069751;28;20323;-63
2021/12/06 07:56:49;;;;;;;28.40;20.30;;;1.90;99.90;;;;;;5077791;28;20565;-63
2021/12/06 07:59:15;;;;;;;30.47;19.80;;;1.90;99.90;;;;;;5082836;28;21027;-61
2021/12/06 08:01:41;;;;;;;29.30;18.67;;;1.90;99.90;;;;;;5068264;28;20177;-61
2021/12/06 08:04:07;;;;;;;27.87;17.23;;;2.00;99.90;;;;;;5082008;28;20204;-61
2021/12/06 08:06:33;;;;;;;32.00;19.50;;;2.00;99.90;;;;;;5072334;28;20614;-61
2021/12/06 08:08:58;;;;;;;30.83;19.23;;;2.00;99.90;;;;;;5088467;28;20181;-61
2021/12/06 08:11:25;;;;;;;27.70;18.00;;;2.10;99.90;;;;;;5074117;28;20825;-61
2021/12/06 08:13:54;;;;;;;24.75;15.57;;;2.10;99.90;;;;;;5087566;28;20180;-61
2021/12/06 08:16:29;;;;;;;25.05;16.52;;;2.20;99.90;;;;;;5076123;28;20323;-62
2021/12/06 08:18:55;;;;;;;25.25;17.42;;;2.20;99.90;;;;;;5075429;28;20220;-61
2021/12/06 08:21:22;;;;;;;25.97;17.30;;;2.20;99.90;;;;;;5083068;28;20215;-61
2021/12/06 08:23:49;;;;;;;25.20;17.20;;;2.20;99.90;;;;;;5054528;28;20740;-61
2021/12/06 08:26:18;;;;;;;23.70;17.15;;;2.20;99.90;;;;;;5066802;28;20189;-61
2021/12/06 08:28:44;;;;;;;26.27;17.63;;;2.20;99.90;;;;;;5069261;28;20181;-61
2021/12/06 08:31:10;;;;;;;22.73;15.88;;;2.20;99.90;;;;;;5079795;28;20230;-61
2021/12/06 08:33:37;;;;;;;24.17;17.08;;;2.20;99.90;;;;;;5081337;28;20173;-61
2021/12/06 08:36:05;;;;;;;23.75;17.02;;;2.20;99.90;;;;;;5082137;28;20174;-61
2021/12/06 08:38:32;;;;;;;27.70;16.83;;;2.20;99.90;;;;;;5070640;28;20178;-61
2021/12/06 08:41:00;;;;;;;24.70;16.02;;;2.20;99.90;;;;;;5088061;28;20173;-60
2021/12/06 08:43:26;;;;;;;26.77;18.05;;;2.10;99.90;;;;;;5065125;28;20220;-60
2021/12/06 08:45:58;;;;;;;25.17;16.77;;;2.10;99.90;;;;;;5088724;28;20650;-59
2021/12/06 08:48:27;;;;;;;26.38;17.20;;;2.10;99.90;;;;;;5077964;28;20643;-59
2021/12/06 08:50:55;;;;;;;27.50;18.65;;;2.10;99.90;;;;;;5070442;28;20227;-60
2021/12/06 08:53:22;;;;;;;26.90;17.88;;;2.10;99.90;;;;;;5072139;28;20166;-61
2021/12/06 08:55:48;;;;;;;30.25;20.27;;;2.10;99.90;;;;;;5088034;28;20206;-60
2021/12/06 08:58:13;;;;;;;29.77;17.90;;;2.10;99.90;;;;;;5091454;28;20206;-60
2021/12/06 09:00:40;;;;;;;33.90;19.90;;;2.20;99.90;;;;;;5075229;28;20275;-60
2021/12/06 09:03:06;;;;;;;28.45;19.17;;;2.20;99.90;;;;;;5091191;28;20259;-60
2021/12/06 09:05:36;;;;;;;28.40;19.60;;;2.20;99.90;;;;;;5084123;28;20308;-61
2021/12/06 09:08:03;;;;;;;30.75;19.63;;;2.30;99.90;;;;;;5075324;28;20518;-61
2021/12/06 09:10:30;;;;;;;26.20;18.27;;;2.40;99.90;;;;;;5072104;28;20628;-63
2021/12/06 09:12:55;;;;;;;33.10;19.88;;;2.40;99.90;;;;;;5090607;28;20183;-61
2021/12/06 09:15:22;;;;;;;31.10;19.70;;;2.50;99.90;;;;;;5091016;28;20184;-62
2021/12/06 09:17:48;;;;;;;32.85;19.42;;;2.50;99.90;;;;;;5072388;28;20194;-62
2021/12/06 09:20:17;;;;;;;33.55;19.25;;;2.40;99.90;;;;;;5084485;28;20177;-61
2021/12/06 09:22:43;;;;;;;33.00;19.42;;;2.40;99.90;;;;;;5071401;28;20221;-61
2021/12/06 09:25:10;;;;;;;32.05;19.77;;;2.50;99.90;;;;;;5082100;28;20188;-61
2021/12/06 09:27:36;;;;;;;28.30;18.90;;;2.50;99.90;;;;;;5075050;28;20197;-61
2021/12/06 09:30:04;;;;;;;32.10;20.48;;;2.70;99.90;;;;;;5081601;28;20252;-61
2021/12/06 09:32:29;;;;;;;36.90;20.92;;;2.80;99.90;;;;;;5077963;28;20185;-62
2021/12/06 09:34:58;;;;;;;33.03;19.33;;;2.80;99.90;;;;;;5079567;28;20188;-61
2021/12/06 09:37:24;;;;;;;36.13;20.75;;;3.00;99.90;;;;;;5077025;28;20184;-61
2021/12/06 09:39:50;;;;;;;32.55;21.45;;;3.10;99.90;;;;;;5076374;28;20177;-61
2021/12/06 09:42:18;;;;;;;30.40;20.20;;;3.10;99.90;;;;;;5079043;28;20264;-61
2021/12/06 09:44:44;;;;;;;33.28;21.67;;;3.10;99.90;;;;;;5068504;28;20459;-61
2021/12/06 09:47:10;;;;;;;29.60;20.55;;;3.10;99.90;;;;;;5072114;28;20178;-61
2021/12/06 09:49:36;;;;;;;32.73;20.60;;;3.00;99.90;;;;;;5073066;28;20531;-61
2021/12/06 09:52:05;;;;;;;33.63;20.23;;;2.90;99.90;;;;;;5077828;28;20448;-61
2021/12/06 09:54:35;;;;;;;32.80;20.60;;;2.90;99.90;;;;;;5082249;28;20180;-60
2021/12/06 09:57:04;;;;;;;33.85;20.65;;;2.90;99.90;;;;;;5078214;28;20631;-61
2021/12/06 09:59:31;;;;;;;34.50;21.02;;;2.90;99.90;;;;;;5081283;28;20667;-60
2021/12/06 10:02:02;;;;;;;32.05;20.60;;;2.90;99.90;;;;;;5068943;28;20207;-52
2021/12/06 10:04:32;;;;;;;34.30;20.67;;;2.80;99.90;;;;;;5064359;28;20221;-61
2021/12/06 10:06:58;;;;;;;34.15;21.65;;;2.80;99.90;;;;;;5081281;28;20263;-60
2021/12/06 10:09:24;;;;;;;29.77;20.17;;;2.70;99.90;;;;;;5069563;28;20197;-61
2021/12/06 10:11:52;;;;;;;39.25;23.15;;;2.70;99.90;;;;;;5069747;28;20202;-61
2021/12/06 10:14:18;;;;;;;35.67;21.60;;;2.70;99.90;;;;;;5070712;28;20703;-60
2021/12/06 10:16:45;;;;;;;30.70;20.20;;;2.70;99.90;;;;;;5089895;28;20177;-60
2021/12/06 10:19:12;;;;;;;34.65;20.92;;;2.70;99.90;;;;;;5070848;28;20185;-55
2021/12/06 10:21:38;;;;;;;36.00;21.88;;;2.70;99.90;;;;;;5090094;28;20185;-59
2021/12/06 10:24:09;;;;;;;33.75;21.17;;;2.70;99.90;;;;;;5085864;28;20306;-62
2021/12/06 10:26:35;;;;;;;35.20;21.30;;;2.60;99.90;;;;;;5077361;28;20185;-61
2021/12/06 10:29:08;;;;;;;33.47;20.40;;;2.70;99.90;;;;;;5083349;28;20255;-61
2021/12/06 10:31:40;;;;;;;32.95;20.20;;;2.70;99.90;;;;;;5088783;28;20197;-58
2021/12/06 10:34:13;;;;;;;33.88;20.15;;;2.60;99.90;;;;;;5075781;28;20186;-61
2021/12/06 10:36:38;;;;;;;34.05;20.20;;;2.50;99.90;;;;;;5082342;28;20196;-60
2021/12/06 10:39:08;;;;;;;31.47;20.50;;;2.40;99.90;;;;;;5082274;28;20185;-61
2021/12/06 10:41:36;;;;;;;31.92;20.55;;;2.40;99.90;;;;;;5089373;28;20608;-61
2021/12/06 10:44:11;;;;;;;33.45;21.80;;;2.30;99.90;;;;;;5074710;28;20205;-60
2021/12/06 10:46:39;;;;;;;35.80;21.48;;;2.30;99.90;;;;;;5069740;28;20259;-61
2021/12/06 10:49:08;;;;;;;35.10;21.23;;;2.30;99.90;;;;;;5068644;28;20716;-61
2021/12/06 10:51:34;;;;;;;30.05;19.75;;;2.30;99.90;;;;;;5069714;28;20189;-61
2021/12/06 10:54:08;;;;;;;31.85;20.52;;;2.30;99.90;;;;;;5073474;28;20189;-61
2021/12/06 10:56:51;;;;;;;33.03;19.58;;;2.20;99.90;;;;;;5084356;28;20582;-61
2021/12/06 10:59:29;;;;;;;34.15;19.35;;;2.30;99.90;;;;;;5075917;28;20650;-60
2021/12/06 11:02:02;;;;;;;38.55;21.80;;;2.30;99.90;;;;;;5069550;28;20810;-62
2021/12/06 11:04:28;;;;;;;31.35;20.27;;;2.30;99.90;;;;;;5080722;28;20204;-60
2021/12/06 11:07:00;;;;;;;30.65;20.38;;;2.30;99.90;;;;;;5078146;28;20440;-61
2021/12/06 11:09:28;;;;;;;39.75;20.85;;;2.30;99.90;;;;;;5068184;28;20258;-61
2021/12/06 11:11:58;;;;;;;33.78;21.45;;;2.30;99.90;;;;;;5087379;28;20173;-62
2021/12/06 11:14:30;;;;;;;33.38;19.60;;;2.20;99.90;;;;;;5077317;28;20216;-61
2021/12/06 11:17:00;;;;;;;29.90;20.88;;;2.30;99.90;;;;;;5087864;28;20181;-61
2021/12/06 11:19:28;;;;;;;34.35;22.25;;;2.30;99.90;;;;;;5077821;28;20182;-61
2021/12/06 11:22:03;;;;;;;32.35;21.27;;;2.30;99.90;;;;;;5068616;28;20331;-62
2021/12/06 11:24:39;;;;;;;35.10;20.80;;;2.20;99.90;;;;;;5066172;28;20231;-61
2021/12/06 11:27:12;;;;;;;34.75;22.08;;;2.30;99.90;;;;;;5078553;28;20189;-60
2021/12/06 11:29:46;;;;;;;32.83;20.13;;;2.30;99.90;;;;;;5085825;28;20178;-61
2021/12/06 11:32:23;;;;;;;33.80;21.30;;;2.40;99.90;;;;;;5088307;28;20173;-52
2021/12/06 11:34:54;;;;;;;32.70;21.15;;;2.40;99.90;;;;;;5085865;28;20226;-62
2021/12/06 11:37:26;;;;;;;33.83;22.17;;;2.40;99.90;;;;;;5084453;28;20564;-61
2021/12/06 11:40:20;;;;;;;28.05;19.02;;;2.40;99.90;;;;;;5083142;28;21035;-55
2021/12/06 11:43:12;;;;;;;30.98;18.92;;;2.40;99.90;;;;;;5068800;28;20190;-52
2021/12/06 11:45:55;;;;;;;27.75;18.33;;;2.40;99.90;;;;;;5068719;28;20205;-52
2021/12/06 11:48:29;;;;;;;33.40;20.85;;;2.50;99.90;;;;;;5068903;28;20201;-48
2021/12/06 11:50:59;;;;;;;32.47;21.02;;;2.40;99.90;;;;;;5078262;28;20177;-53
2021/12/06 11:53:32;;;;;;;29.45;20.25;;;2.50;99.90;;;;;;5084454;28;20620;-52
2021/12/06 11:56:08;;;;;;;32.80;19.15;;;2.40;99.90;;;;;;5067717;28;20181;-53
2021/12/06 11:58:40;;;;;;;35.60;21.38;;;2.40;99.90;;;;;;5081562;28;20178;-53
2021/12/06 12:01:16;;;;;;;33.67;19.75;;;2.50;99.90;;;;;;5078354;28;20211;-53
2021/12/06 12:03:48;;;;;;;35.58;21.40;;;2.50;99.90;;;;;;5088570;28;20566;-51
2021/12/06 12:06:30;;;;;;;34.17;20.83;;;2.50;99.90;;;;;;5075160;28;20212;-52
2021/12/06 12:09:10;;;;;;;33.35;21.77;;;2.50;99.90;;;;;;5068667;28;20530;-55
2021/12/06 12:11:56;;;;;;;37.42;22.13;;;2.40;99.90;;;;;;5071832;28;20651;-59
2021/12/06 12:14:28;;;;;;;34.72;21.52;;;2.40;99.90;;;;;;5088291;28;20282;-56
2021/12/06 12:16:54;;;;;;;30.58;19.20;;;2.50;99.90;;;;;;5065772;28;20173;-51
2021/12/06 12:19:20;;;;;;;35.50;20.13;;;2.40;99.90;;;;;;5068606;28;20618;-54
2021/12/06 12:21:46;;;;;;;33.70;21.43;;;2.40;99.90;;;;;;5075616;28;20953;-51
2021/12/06 12:24:12;;;;;;;32.90;20.40;;;2.30;99.90;;;;;;5095322;28;20266;-48
2021/12/06 12:26:50;;;;;;;30.30;19.88;;;2.30;99.90;;;;;;5082274;28;20185;-51
2021/12/06 12:29:24;;;;;;;33.85;20.05;;;2.20;99.90;;;;;;5076890;28;20184;-53
2021/12/06 12:31:52;;;;;;;31.58;19.20;;;2.20;99.90;;;;;;5077623;28;20210;-52
2021/12/06 12:34:18;;;;;;;32.60;20.42;;;2.20;99.90;;;;;;5090423;28;20718;-51
2021/12/06 12:36:44;;;;;;;30.07;18.73;;;2.10;99.90;;;;;;5085637;28;20283;-49
2021/12/06 12:39:17;;;;;;;32.77;19.07;;;2.00;99.90;;;;;;5095179;28;20430;-58
2021/12/06 12:42:09;;;;;;;32.80;20.63;;;2.00;99.90;;;;;;5086821;28;20188;-56
2021/12/06 12:44:48;;;;;;;31.20;19.08;;;2.00;99.90;;;;;;5076634;28;20216;-54
2021/12/06 12:47:26;;;;;;;33.05;20.90;;;2.00;99.90;;;;;;5077331;28;20196;-51
2021/12/06 12:49:59;;;;;;;31.38;20.95;;;2.10;99.90;;;;;;5078024;28;20192;-53